createdAt,value
2019-03-16T00:00:49.011Z,0.13
2019-03-16T00:05:52.567Z,0.20
2019-03-16T00:10:56.197Z,0.30
2019-03-16T00:15:59.752Z,0.20
2019-03-16T00:21:03.270Z,0.30
2019-03-16T00:26:06.821Z,0.27
2019-03-16T00:31:10.408Z,0.20
2019-03-16T00:36:14.125Z,0.40
2019-03-16T00:41:17.570Z,0.30
2019-03-16T00:46:21.044Z,0.10
2019-03-16T00:51:24.509Z,0.20
2019-03-16T00:56:27.956Z,0.20
2019-03-16T01:01:31.408Z,0.50
2019-03-16T01:06:35.087Z,0.20
2019-03-16T01:11:39.591Z,0.10
2019-03-16T01:16:42.989Z,0.10
2019-03-16T01:21:46.599Z,0.20
2019-03-16T01:26:50.021Z,0.13
2019-03-16T01:31:53.440Z,0.20
2019-03-16T01:36:56.972Z,0.20
2019-03-16T01:42:00.447Z,0.20
2019-03-16T01:47:03.958Z,0.30
2019-03-16T01:52:07.521Z,0.30
2019-03-16T01:57:11.101Z,0.20
2019-03-16T02:02:14.621Z,0.33
2019-03-16T02:07:18.182Z,0.28
2019-03-16T02:12:21.639Z,0.20
2019-03-16T02:17:25.052Z,0.20
2019-03-16T02:22:28.566Z,0.30
2019-03-16T02:27:31.960Z,0.33
2019-03-16T02:32:35.368Z,0.40
2019-03-16T02:37:38.907Z,0.40
2019-03-16T02:42:42.282Z,0.40
2019-03-16T02:47:45.902Z,0.40
2019-03-16T02:52:50.136Z,0.30
2019-03-16T02:57:52.820Z,0.67
2019-03-16T03:02:56.228Z,0.43
2019-03-16T03:07:59.704Z,0.67
2019-03-16T03:13:03.108Z,0.33
2019-03-16T03:18:06.657Z,0.80
2019-03-16T03:23:10.074Z,0.50
2019-03-16T03:28:13.455Z,0.47
2019-03-16T03:33:17.002Z,0.63
2019-03-16T03:38:20.540Z,0.63
2019-03-16T03:43:25.084Z,0.50
2019-03-16T03:48:28.504Z,1.10
2019-03-16T03:53:32.124Z,0.87
2019-03-16T03:58:35.808Z,0.77
2019-03-16T04:03:39.263Z,2.30
2019-03-16T04:08:42.707Z,3.30
2019-03-16T04:13:46.244Z,0.83
2019-03-16T04:18:51.698Z,0.83
2019-03-16T04:23:53.092Z,1.03
2019-03-16T04:28:56.477Z,0.60
2019-03-16T04:33:59.926Z,0.83
2019-03-16T04:39:03.391Z,0.50
2019-03-16T04:44:06.847Z,0.87
2019-03-16T04:49:10.244Z,0.50
2019-03-16T04:54:13.752Z,0.57
2019-03-16T04:59:17.168Z,0.30
2019-03-16T05:04:20.608Z,0.73
2019-03-16T05:09:24.022Z,0.40
2019-03-16T05:14:28.240Z,0.77
2019-03-16T05:19:31.650Z,1.13
2019-03-16T05:24:35.091Z,1.90
2019-03-16T05:29:38.508Z,0.70
2019-03-16T05:34:55.557Z,0.78
2019-03-16T05:39:45.399Z,0.30
2019-03-16T05:44:48.797Z,0.93
2019-03-16T05:49:52.373Z,0.87
2019-03-16T05:54:55.785Z,1.23
2019-03-16T05:59:59.234Z,1.70
2019-03-16T06:05:10.556Z,1.50
2019-03-16T06:10:07.376Z,1.20
2019-03-16T06:15:10.818Z,1.07
2019-03-16T06:20:14.319Z,0.80
2019-03-16T06:25:17.731Z,0.83
2019-03-16T06:30:21.217Z,0.97
2019-03-16T06:35:29.147Z,0.70
2019-03-16T06:40:28.116Z,0.80
2019-03-16T06:45:31.507Z,1.10
2019-03-16T06:50:34.896Z,1.30
2019-03-16T06:55:38.347Z,1.00
2019-03-16T07:00:41.788Z,0.80
2019-03-16T07:05:45.310Z,1.10
2019-03-16T07:10:48.731Z,0.90
2019-03-16T07:15:52.272Z,0.83
2019-03-16T07:20:55.781Z,0.93
2019-03-16T07:25:59.194Z,1.07
2019-03-16T07:31:02.640Z,1.33
2019-03-16T07:36:06.095Z,1.57
2019-03-16T07:41:09.603Z,1.20
2019-03-16T07:46:13.088Z,1.27
2019-03-16T07:51:16.574Z,1.37
2019-03-16T07:56:21.079Z,1.20
2019-03-16T08:01:24.565Z,1.00
2019-03-16T08:06:28.078Z,0.90
2019-03-16T08:11:31.572Z,1.40
2019-03-16T08:16:35.012Z,1.17
2019-03-16T08:21:38.504Z,0.80
2019-03-16T08:26:41.888Z,1.20
2019-03-16T08:31:45.327Z,0.90
2019-03-16T08:36:48.733Z,1.00
2019-03-16T08:41:53.206Z,0.73
2019-03-16T08:46:56.689Z,0.67
2019-03-16T08:52:00.133Z,0.83
2019-03-16T08:57:03.611Z,0.73
2019-03-16T09:02:07.049Z,0.90
2019-03-16T09:07:10.444Z,1.10
2019-03-16T09:12:13.877Z,1.10
2019-03-16T09:17:17.319Z,1.00
2019-03-16T09:22:20.803Z,0.90
2019-03-16T09:27:30.988Z,0.83
2019-03-16T09:32:27.695Z,0.60
2019-03-16T09:37:31.097Z,1.30
2019-03-16T09:42:34.643Z,1.10
2019-03-16T09:47:38.151Z,2.63
2019-03-16T09:52:41.591Z,2.20
2019-03-16T09:57:45.043Z,1.97
2019-03-16T10:02:48.597Z,1.37
2019-03-16T10:07:52.031Z,1.67
2019-03-16T10:12:55.604Z,2.90
2019-03-16T10:17:59.039Z,2.23
2019-03-16T10:23:02.548Z,1.87
2019-03-16T10:28:06.139Z,1.73
2019-03-16T10:33:11.124Z,0.73
2019-03-16T10:38:12.984Z,1.50
2019-03-16T10:43:16.570Z,0.63
2019-03-16T10:48:20.289Z,1.77
2019-03-16T10:53:23.835Z,0.97
2019-03-16T10:58:27.501Z,0.97
2019-03-16T11:03:31.132Z,1.20
2019-03-16T11:08:34.766Z,0.70
2019-03-16T11:13:38.304Z,0.70
2019-03-16T11:18:41.717Z,1.30
2019-03-16T11:23:45.238Z,1.67
2019-03-16T11:28:48.709Z,1.40
2019-03-16T11:33:52.221Z,0.78
2019-03-16T11:38:56.156Z,1.50
2019-03-16T11:43:59.675Z,0.27
2019-03-16T11:49:03.175Z,0.73
2019-03-16T11:54:06.584Z,1.13
2019-03-16T11:59:20.972Z,1.10
2019-03-16T12:04:13.641Z,1.40
2019-03-16T12:09:17.107Z,1.00
2019-03-16T12:14:20.593Z,0.70
2019-03-16T12:19:24.082Z,1.30
2019-03-16T12:24:27.496Z,1.80
2019-03-16T12:29:34.333Z,2.17
2019-03-16T12:34:34.394Z,0.97
2019-03-16T12:39:37.981Z,0.90
2019-03-16T12:44:41.527Z,0.70
2019-03-16T12:49:45.137Z,0.97
2019-03-16T12:54:48.623Z,0.67
2019-03-16T12:59:52.171Z,1.07
2019-03-16T13:04:55.832Z,0.60
2019-03-16T13:09:59.511Z,0.80
2019-03-16T13:15:03.052Z,1.10
2019-03-16T13:20:06.767Z,0.57
2019-03-16T13:25:10.445Z,0.80
2019-03-16T13:30:14.255Z,0.60
2019-03-16T13:35:17.824Z,0.60
2019-03-16T13:40:21.526Z,0.63
2019-03-16T13:45:24.988Z,1.07
2019-03-16T13:50:28.537Z,0.70
2019-03-16T13:55:32.253Z,0.80
2019-03-16T14:00:35.789Z,0.60
2019-03-16T14:05:39.599Z,0.40
2019-03-16T14:10:43.096Z,0.80
2019-03-16T14:15:46.626Z,0.80
2019-03-16T14:20:50.240Z,2.80
2019-03-16T14:25:53.868Z,0.30
2019-03-16T14:30:57.372Z,0.47
2019-03-16T14:36:00.982Z,0.60
2019-03-16T14:41:05.701Z,0.90
2019-03-16T14:46:09.250Z,0.70
2019-03-16T14:51:12.907Z,1.10
2019-03-16T14:56:16.874Z,0.80
2019-03-16T15:01:20.506Z,1.23
2019-03-16T15:06:24.254Z,1.17
2019-03-16T15:11:27.789Z,0.77
2019-03-16T15:16:31.255Z,0.87
2019-03-16T15:21:34.834Z,0.80
2019-03-16T15:26:39.465Z,1.20
2019-03-16T15:31:42.979Z,0.70
2019-03-16T15:36:46.598Z,0.77
2019-03-16T15:41:50.106Z,1.17
2019-03-16T15:46:54.121Z,0.60
2019-03-16T15:51:57.680Z,0.90
2019-03-16T15:57:01.254Z,1.17
2019-03-16T16:02:04.843Z,1.27
2019-03-16T16:07:08.400Z,0.67
2019-03-16T16:12:12.008Z,0.60
2019-03-16T16:17:15.584Z,0.77
2019-03-16T16:22:19.156Z,0.77
2019-03-16T16:27:24.118Z,0.57
2019-03-16T16:32:26.316Z,0.93
2019-03-16T16:37:29.908Z,1.20
2019-03-16T16:42:33.573Z,1.10
2019-03-16T16:47:37.123Z,1.13
2019-03-16T16:52:40.716Z,1.20
2019-03-16T16:57:44.357Z,1.10
2019-03-16T17:02:47.950Z,1.07
2019-03-16T17:07:51.448Z,1.87
2019-03-16T17:12:55.045Z,0.70
2019-03-16T17:17:58.668Z,0.60
2019-03-16T17:23:02.200Z,0.60
2019-03-16T17:28:05.873Z,1.80
2019-03-16T17:33:09.389Z,1.33
2019-03-16T17:38:13.017Z,2.80
2019-03-16T17:43:16.536Z,3.80
2019-03-16T17:48:20.293Z,1.97
2019-03-16T17:53:23.818Z,2.70
2019-03-16T17:58:27.428Z,2.50
2019-03-16T18:03:31.084Z,2.90
2019-03-16T18:08:34.594Z,2.53
2019-03-16T18:13:38.200Z,2.70
2019-03-16T18:18:41.884Z,4.10
2019-03-16T18:23:45.533Z,5.67
2019-03-16T18:28:49.096Z,3.40
2019-03-16T18:33:52.686Z,5.53
2019-03-16T18:38:56.192Z,2.70
2019-03-16T18:43:59.736Z,3.93
2019-03-16T18:49:03.251Z,3.73
2019-03-16T18:54:06.797Z,3.53
2019-03-16T18:59:10.344Z,3.53
2019-03-16T19:04:13.888Z,2.73
2019-03-16T19:09:17.523Z,2.37
2019-03-16T19:14:21.251Z,2.67
2019-03-16T19:19:24.916Z,2.37
2019-03-16T19:24:28.730Z,4.60
2019-03-16T19:29:32.280Z,5.00
2019-03-16T19:34:35.828Z,4.60
2019-03-16T19:39:39.660Z,3.33
2019-03-16T19:44:43.189Z,2.50
2019-03-16T19:49:46.816Z,9.33
2019-03-16T19:54:50.629Z,5.00
2019-03-16T20:00:00.027Z,7.23
2019-03-16T20:05:03.916Z,7.17
2019-03-16T20:10:08.255Z,5.70
2019-03-16T20:15:12.131Z,6.40
2019-03-16T20:20:16.475Z,4.10
2019-03-16T20:25:20.186Z,5.80
2019-03-16T20:30:26.874Z,5.00
2019-03-16T20:35:27.758Z,4.33
2019-03-16T20:40:31.709Z,4.03
2019-03-16T20:45:35.597Z,3.03
2019-03-16T20:50:39.092Z,1.90
2019-03-16T20:55:43.110Z,3.98
2019-03-16T21:00:48.059Z,3.70
2019-03-16T21:05:51.341Z,3.27
2019-03-16T21:10:54.845Z,3.45
2019-03-16T21:15:59.280Z,2.70
2019-03-16T21:21:03.393Z,3.30
2019-03-16T21:26:06.956Z,5.93
2019-03-16T21:31:10.819Z,5.23
2019-03-16T21:36:14.863Z,4.53
2019-03-16T21:41:18.775Z,2.70
2019-03-16T21:46:22.601Z,2.90
2019-03-16T21:51:26.385Z,3.03
2019-03-16T21:56:29.959Z,3.33
2019-03-16T22:01:33.880Z,3.63
2019-03-16T22:06:37.501Z,4.10
2019-03-16T22:11:41.451Z,3.30
2019-03-16T22:16:45.486Z,3.17
2019-03-16T22:21:49.349Z,3.93
2019-03-16T22:26:52.945Z,3.23
2019-03-16T22:31:56.481Z,2.70
2019-03-16T22:37:00.102Z,3.20
2019-03-16T22:42:03.659Z,2.77
2019-03-16T22:47:07.261Z,2.73
2019-03-16T22:52:10.780Z,2.43
2019-03-16T22:57:14.274Z,2.57
2019-03-16T23:02:17.994Z,2.93
2019-03-16T23:07:21.707Z,2.50
2019-03-16T23:12:25.367Z,2.00
2019-03-16T23:17:28.901Z,2.60
2019-03-16T23:22:32.437Z,3.00
2019-03-16T23:27:36.141Z,2.23
2019-03-16T23:32:39.693Z,2.20
2019-03-16T23:37:43.268Z,3.07
2019-03-16T23:42:46.984Z,2.57
2019-03-16T23:47:50.729Z,2.40
2019-03-16T23:52:54.375Z,2.00
2019-03-16T23:57:57.808Z,2.80
